Time;durP1;ratioP1;P1;durP2;ratioP2;P2;SDS_P1;SDS_P2;PMS_P1;PMS_P2;Temp;Humidity;BMP_temperature;BMP_pressure;BME280_temperature;BME280_humidity;BME280_pressure;Samples;Min_cycle;Max_cycle;Signal;HPM_P1;HPM_P2
2022/02/07 00:01:15;;;;;;;0.30;0.30;;;18.80;99.90;;;;;;5059630;28;20036;-61
2022/02/07 00:03:47;;;;;;;0.40;0.40;;;18.80;99.90;;;;;;5057101;28;20044;-61
2022/02/07 00:06:14;;;;;;;1.08;0.93;;;18.80;99.90;;;;;;5055506;28;20048;-61
2022/02/07 00:08:42;;;;;;;0.35;0.35;;;18.80;99.90;;;;;;5049552;28;20049;-60
2022/02/07 00:11:15;;;;;;;0.30;0.30;;;18.80;99.90;;;;;;5054502;28;20384;-62
2022/02/07 00:13:43;;;;;;;1.05;0.98;;;18.70;99.90;;;;;;5045973;28;20052;-63
2022/02/07 00:16:11;;;;;;;0.30;0.30;;;18.70;99.90;;;;;;5055025;28;20059;-59
2022/02/07 00:18:39;;;;;;;;;;;18.70;99.90;;;;;;5047539;28;20053;-62
2022/02/07 00:21:06;;;;;;;0.30;0.30;;;18.70;99.90;;;;;;5054253;28;19947;-62
2022/02/07 00:23:34;;;;;;;0.40;0.40;;;18.70;99.90;;;;;;5054935;28;20555;-59
2022/02/07 00:26:01;;;;;;;0.30;0.30;;;18.70;99.90;;;;;;5052796;28;20045;-59
2022/02/07 00:28:29;;;;;;;0.30;0.30;;;18.70;99.90;;;;;;5061067;28;20516;-58
2022/02/07 00:30:56;;;;;;;0.30;0.30;;;18.70;99.90;;;;;;5064597;28;20074;-61
2022/02/07 00:33:23;;;;;;;0.30;0.30;;;18.70;99.90;;;;;;5052824;28;20052;-60
2022/02/07 00:35:50;;;;;;;0.30;0.30;;;18.70;99.90;;;;;;5069212;28;20044;-56
2022/02/07 00:38:20;;;;;;;0.40;0.40;;;18.60;99.90;;;;;;5052534;28;20060;-59
2022/02/07 00:41:02;;;;;;;1.13;0.93;;;18.60;99.90;;;;;;5049445;28;20056;-60
2022/02/07 00:43:40;;;;;;;0.30;0.30;;;18.60;99.90;;;;;;5061348;28;20045;-61
2022/02/07 00:46:10;;;;;;;0.40;0.40;;;18.60;99.90;;;;;;5050514;28;20140;-61
2022/02/07 00:48:39;;;;;;;0.40;0.40;;;18.60;99.90;;;;;;5051069;28;20351;-60
2022/02/07 00:51:07;;;;;;;0.30;0.30;;;18.60;99.90;;;;;;5054650;28;20045;-60
2022/02/07 00:53:35;;;;;;;0.40;0.40;;;18.60;99.90;;;;;;5064616;28;20049;-63
2022/02/07 00:56:03;;;;;;;0.32;0.32;;;18.50;99.90;;;;;;5048184;28;20053;-63
2022/02/07 00:58:34;;;;;;;0.30;0.30;;;18.50;99.90;;;;;;5037012;28;20052;-61
2022/02/07 01:01:01;;;;;;;0.30;0.30;;;18.50;99.90;;;;;;5054448;28;20053;-57
2022/02/07 01:03:35;;;;;;;0.40;0.40;;;18.60;99.90;;;;;;5048576;28;20049;-60
2022/02/07 01:06:03;;;;;;;0.50;0.50;;;18.60;99.90;;;;;;5062158;28;20063;-62
2022/02/07 01:08:46;;;;;;;0.30;0.30;;;18.50;99.90;;;;;;5037434;28;20504;-59
2022/02/07 01:11:45;;;;;;;0.50;0.50;;;18.50;99.90;;;;;;5039398;28;20699;-61
2022/02/07 01:47:47;;;;;;;0.30;0.30;;;18.40;99.90;;;;;;5046998;28;20455;-62
2022/02/07 01:50:47;;;;;;;0.30;0.30;;;18.40;99.90;;;;;;5037335;28;20531;-60
2022/02/07 01:55:59;;;;;;;0.40;0.40;;;18.40;99.90;;;;;;5048846;28;20056;-61
2022/02/07 01:58:27;;;;;;;0.30;0.30;;;18.30;99.90;;;;;;5055364;28;20052;-62
2022/02/07 02:00:55;;;;;;;0.38;0.38;;;18.30;99.90;;;;;;5072797;28;20052;-59
2022/02/07 02:03:22;;;;;;;0.40;0.40;;;18.30;99.90;;;;;;5040801;28;20394;-60
2022/02/07 02:05:55;;;;;;;0.30;0.30;;;18.30;99.90;;;;;;5064406;28;20048;-61
2022/02/07 02:08:39;;;;;;;0.30;0.30;;;18.30;99.90;;;;;;5031056;28;20053;-60
2022/02/07 02:11:08;;;;;;;0.40;0.40;;;18.30;99.90;;;;;;5048751;28;20048;-61
2022/02/07 02:16:48;;;;;;;0.40;0.40;;;18.20;99.90;;;;;;5011063;28;20629;-61
2022/02/07 02:22:46;;;;;;;0.40;0.40;;;18.30;99.90;;;;;;5011047;28;20048;-60
2022/02/07 02:36:57;;;;;;;0.38;0.38;;;18.20;99.90;;;;;;5043146;28;20053;-60
2022/02/07 02:47:37;;;;;;;0.50;0.50;;;18.20;99.90;;;;;;5068136;28;20040;-60
2022/02/07 02:50:34;;;;;;;0.32;0.32;;;18.10;99.90;;;;;;5047106;28;20073;-59
2022/02/07 02:53:07;;;;;;;0.40;0.40;;;18.10;99.90;;;;;;5060401;28;20439;-61
2022/02/07 02:55:38;;;;;;;0.35;0.35;;;18.10;99.90;;;;;;5068280;28;20065;-58
2022/02/07 02:58:10;;;;;;;0.20;0.20;;;18.10;99.90;;;;;;5054009;28;20041;-60
2022/02/07 03:00:41;;;;;;;0.40;0.40;;;18.10;99.90;;;;;;5053887;28;20055;-59
2022/02/07 03:03:19;;;;;;;0.30;0.30;;;18.10;99.90;;;;;;5053703;28;20055;-56
2022/02/07 03:05:47;;;;;;;0.77;0.65;;;18.10;99.90;;;;;;5045775;28;20182;-60
2022/02/07 03:08:16;;;;;;;0.40;0.40;;;18.10;99.90;;;;;;5039192;28;20052;-57
2022/02/07 03:11:05;;;;;;;0.30;0.30;;;18.10;99.90;;;;;;5056642;28;20076;-60
2022/02/07 03:13:46;;;;;;;0.50;0.50;;;18.10;99.90;;;;;;5054439;28;20060;-59
2022/02/07 03:16:39;;;;;;;0.30;0.30;;;18.10;99.90;;;;;;5046014;28;20059;-62
2022/02/07 03:19:16;;;;;;;0.30;0.30;;;18.10;99.90;;;;;;5041005;28;20058;-62
2022/02/07 03:21:46;;;;;;;11.32;1.10;;;18.10;99.90;;;;;;5048538;28;20049;-60
2022/02/07 03:24:16;;;;;;;0.30;0.30;;;18.00;99.90;;;;;;5059764;28;20044;-58
2022/02/07 03:27:03;;;;;;;0.30;0.30;;;18.10;99.90;;;;;;5040420;28;20053;-62
2022/02/07 03:29:37;;;;;;;0.30;0.30;;;18.10;99.90;;;;;;5041802;28;20049;-63
2022/02/07 03:32:08;;;;;;;0.73;0.73;;;18.10;99.90;;;;;;5030245;28;20417;-60
2022/02/07 03:34:47;;;;;;;0.40;0.40;;;18.00;99.90;;;;;;5055361;28;20051;-59
2022/02/07 03:37:17;;;;;;;0.40;0.40;;;18.10;99.90;;;;;;5037970;28;20052;-62
2022/02/07 03:39:45;;;;;;;0.30;0.30;;;18.00;99.90;;;;;;5045403;28;20060;-60
2022/02/07 03:42:15;;;;;;;0.32;0.32;;;18.00;99.90;;;;;;5056394;28;20057;-59
2022/02/07 03:44:51;;;;;;;0.40;0.40;;;18.00;99.90;;;;;;5036853;28;20235;-60
2022/02/07 03:47:19;;;;;;;0.30;0.30;;;18.00;99.90;;;;;;5045359;28;20056;-60
2022/02/07 03:49:46;;;;;;;0.30;0.30;;;18.10;99.90;;;;;;5040821;28;20067;-59
2022/02/07 03:52:13;;;;;;;0.30;0.30;;;18.10;99.90;;;;;;5055851;28;20396;-60
2022/02/07 03:54:42;;;;;;;0.30;0.30;;;18.10;99.90;;;;;;5045736;28;20128;-60
2022/02/07 03:57:09;;;;;;;0.30;0.30;;;18.10;99.90;;;;;;5043697;28;20064;-59
2022/02/07 03:59:38;;;;;;;0.40;0.40;;;18.10;99.90;;;;;;5043946;28;20064;-60
2022/02/07 04:02:06;;;;;;;0.75;0.75;;;18.10;99.90;;;;;;5046188;28;20522;-61
2022/02/07 04:04:46;;;;;;;0.30;0.30;;;18.00;99.90;;;;;;5047256;28;20479;-60
2022/02/07 04:07:14;;;;;;;0.40;0.40;;;17.90;99.90;;;;;;5061415;28;20052;-57
2022/02/07 04:09:48;;;;;;;0.40;0.40;;;17.90;99.90;;;;;;5050884;28;20052;-61
2022/02/07 04:12:20;;;;;;;0.30;0.30;;;17.90;99.90;;;;;;5059780;28;20123;-59
2022/02/07 04:15:00;;;;;;;0.30;0.30;;;17.80;99.90;;;;;;5037790;28;20056;-60
2022/02/07 04:17:30;;;;;;;0.30;0.30;;;17.80;99.90;;;;;;5052636;28;20428;-57
2022/02/07 04:20:02;;;;;;;0.47;0.47;;;17.80;99.90;;;;;;5053667;28;20512;-60
2022/02/07 04:22:45;;;;;;;10.05;0.95;;;17.80;99.90;;;;;;5071440;28;20049;-60
2022/02/07 04:25:25;;;;;;;0.45;0.45;;;17.90;99.90;;;;;;5049831;28;20064;-61
2022/02/07 04:28:14;;;;;;;0.30;0.30;;;17.80;99.90;;;;;;5068439;28;20040;-61
2022/02/07 04:30:43;;;;;;;0.30;0.30;;;17.80;99.90;;;;;;5047473;28;20045;-61
2022/02/07 04:33:12;;;;;;;0.73;0.52;;;17.80;99.90;;;;;;5045042;28;20048;-62
2022/02/07 04:35:39;;;;;;;0.30;0.30;;;17.70;99.90;;;;;;5051605;28;20052;-61
2022/02/07 04:38:06;;;;;;;0.40;0.40;;;17.80;99.90;;;;;;5051463;28;20052;-60
2022/02/07 04:40:37;;;;;;;0.32;0.32;;;17.70;99.90;;;;;;5066636;28;20583;-62
2022/02/07 04:43:08;;;;;;;0.80;0.75;;;17.70;99.90;;;;;;5050335;28;20424;-59
2022/02/07 05:03:55;;;;;;;0.30;0.30;;;18.40;99.90;;;;;;5054546;28;20516;-61
2022/02/07 05:14:50;;;;;;;0.40;0.40;;;18.80;99.90;;;;;;5048609;28;19928;-60
2022/02/07 05:17:20;;;;;;;0.30;0.30;;;18.90;99.90;;;;;;5058587;28;20500;-61
2022/02/07 05:19:59;;;;;;;0.32;0.32;;;19.00;99.90;;;;;;5047860;28;20060;-61
2022/02/07 05:22:47;;;;;;;0.30;0.30;;;19.10;99.90;;;;;;5032998;28;20076;-61
2022/02/07 05:25:34;;;;;;;0.43;0.43;;;19.30;99.90;;;;;;5037255;28;20066;-57
2022/02/07 05:28:05;;;;;;;0.30;0.30;;;19.40;99.90;;;;;;5042065;28;20052;-56
2022/02/07 05:30:45;;;;;;;0.30;0.30;;;19.50;99.90;;;;;;5048842;28;20053;-64
2022/02/07 05:33:29;;;;;;;0.30;0.30;;;19.70;99.90;;;;;;5037315;28;20048;-62
2022/02/07 05:36:09;;;;;;;0.50;0.50;;;19.80;99.90;;;;;;5051123;28;20042;-58
2022/02/07 05:38:59;;;;;;;0.50;0.50;;;20.00;99.90;;;;;;5031186;28;20852;-60
2022/02/07 05:41:39;;;;;;;0.30;0.30;;;20.10;99.90;;;;;;5044874;28;20052;-59
2022/02/07 05:44:16;;;;;;;2.17;1.05;;;20.30;99.90;;;;;;5046584;28;20794;-60
2022/02/07 05:47:10;;;;;;;0.68;0.68;;;20.40;99.90;;;;;;5045066;28;20427;-60
2022/02/07 05:49:56;;;;;;;0.30;0.30;;;20.60;99.90;;;;;;5045755;28;20040;-58
2022/02/07 05:52:54;;;;;;;0.30;0.30;;;20.80;99.90;;;;;;5047992;28;20036;-58
2022/02/07 05:55:26;;;;;;;0.30;0.30;;;21.00;99.90;;;;;;5049196;28;20065;-58
2022/02/07 05:58:08;;;;;;;0.30;0.30;;;21.20;99.90;;;;;;5044525;28;20068;-59
2022/02/07 06:01:14;;;;;;;0.30;0.30;;;21.30;99.90;;;;;;4989878;28;20058;-59
2022/02/07 06:03:43;;;;;;;0.30;0.30;;;21.30;99.90;;;;;;4968569;28;20076;-57
2022/02/07 06:06:13;;;;;;;0.30;0.30;;;21.30;99.90;;;;;;5004384;28;20056;-59
2022/02/07 06:08:43;;;;;;;0.30;0.30;;;21.30;99.90;;;;;;5037537;28;20489;-58
2022/02/07 06:11:14;;;;;;;0.20;0.20;;;21.30;99.90;;;;;;5043837;28;20068;-59
2022/02/07 06:13:44;;;;;;;3.25;1.02;;;21.30;99.90;;;;;;5043765;28;20101;-60
2022/02/07 06:16:16;;;;;;;0.30;0.30;;;21.30;99.90;;;;;;5047138;28;20397;-57
2022/02/07 06:18:48;;;;;;;0.30;0.30;;;21.20;99.90;;;;;;5036198;28;20060;-59
2022/02/07 06:21:18;;;;;;;8.25;2.03;;;21.30;99.90;;;;;;5057326;28;20053;-60
2022/02/07 06:23:46;;;;;;;0.30;0.30;;;21.20;99.90;;;;;;5037501;28;20485;-60
2022/02/07 06:26:17;;;;;;;1.55;0.88;;;21.20;99.90;;;;;;5043012;28;20049;-59
2022/02/07 06:28:47;;;;;;;0.30;0.30;;;21.20;99.90;;;;;;5058497;28;20045;-60
2022/02/07 06:31:16;;;;;;;0.40;0.40;;;21.20;99.90;;;;;;5032515;28;20056;-58
2022/02/07 06:33:44;;;;;;;0.30;0.30;;;21.20;99.90;;;;;;5044851;28;20433;-58
2022/02/07 06:36:14;;;;;;;0.30;0.30;;;21.20;99.90;;;;;;5046196;28;20060;-59
2022/02/07 06:38:41;;;;;;;1.15;0.75;;;21.10;99.90;;;;;;5045114;28;20064;-60
2022/02/07 06:41:09;;;;;;;0.30;0.30;;;21.10;99.90;;;;;;5052469;28;20060;-61
2022/02/07 06:43:37;;;;;;;0.30;0.30;;;21.10;99.90;;;;;;5053729;28;20065;-60
2022/02/07 06:46:08;;;;;;;1.75;1.38;;;21.10;99.90;;;;;;5059244;28;20040;-60
2022/02/07 06:48:35;;;;;;;1.30;1.20;;;21.00;99.90;;;;;;5056303;28;20045;-60
2022/02/07 06:51:07;;;;;;;0.30;0.30;;;21.00;99.90;;;;;;5049033;28;20051;-63
2022/02/07 06:53:38;;;;;;;0.50;0.50;;;21.00;99.90;;;;;;5033526;28;20053;-62
2022/02/07 06:56:06;;;;;;;0.60;0.60;;;20.90;99.90;;;;;;5041335;28;20053;-58
2022/02/07 06:58:36;;;;;;;0.30;0.30;;;20.90;99.90;;;;;;5034459;28;20049;-58
2022/02/07 07:01:05;;;;;;;0.50;0.50;;;20.90;99.90;;;;;;5024991;28;21125;-58
2022/02/07 07:03:37;;;;;;;0.43;0.43;;;20.90;99.90;;;;;;5042290;28;20065;-61
2022/02/07 07:06:05;;;;;;;0.30;0.30;;;20.90;99.90;;;;;;5028089;28;20051;-61
2022/02/07 07:08:38;;;;;;;5.22;2.60;;;20.90;99.90;;;;;;5018258;28;20045;-58
2022/02/07 07:11:07;;;;;;;0.93;0.93;;;20.80;99.90;;;;;;5010976;28;20050;-61
2022/02/07 07:13:48;;;;;;;0.73;0.73;;;20.80;99.90;;;;;;5023172;28;20041;-65
2022/02/07 07:18:52;;;;;;;2.42;1.50;;;20.80;99.90;;;;;;5027313;28;20046;-63
2022/02/07 07:21:20;;;;;;;0.38;0.38;;;20.70;99.90;;;;;;5026646;28;20052;-61
2022/02/07 07:23:50;;;;;;;1.25;0.95;;;20.70;99.90;;;;;;5021648;28;20409;-61
2022/02/07 07:26:17;;;;;;;1.23;1.00;;;20.70;99.90;;;;;;5016457;28;20406;-62
2022/02/07 07:28:45;;;;;;;0.32;0.32;;;20.70;99.90;;;;;;5026563;28;20120;-65
2022/02/07 07:31:14;;;;;;;0.60;0.50;;;20.60;99.90;;;;;;5017911;28;20042;-62
2022/02/07 07:33:50;;;;;;;1.92;1.02;;;20.60;99.90;;;;;;5017263;28;20133;-63
2022/02/07 07:36:18;;;;;;;0.80;0.80;;;20.60;99.90;;;;;;5024122;28;20065;-62
2022/02/07 07:38:46;;;;;;;0.40;0.38;;;20.60;99.90;;;;;;5025269;28;20050;-63
2022/02/07 07:41:15;;;;;;;0.65;0.65;;;20.60;99.90;;;;;;5027280;28;20045;-63
2022/02/07 07:43:52;;;;;;;0.40;0.40;;;20.60;99.90;;;;;;5026735;28;20052;-62
2022/02/07 07:46:37;;;;;;;0.30;0.30;;;20.60;99.90;;;;;;5026453;28;20101;-60
2022/02/07 07:49:18;;;;;;;0.30;0.30;;;19.80;99.90;;;;;;5026134;28;20053;-58
2022/02/07 07:52:10;;;;;;;1.77;1.30;;;20.10;99.90;;;;;;5015067;28;20447;-62
2022/02/07 08:03:18;;;;;;;0.40;0.40;;;21.20;99.90;;;;;;5060823;28;20061;-61
2022/02/07 08:05:54;;;;;;;1.55;1.20;;;21.20;99.90;;;;;;5053678;28;20052;-60
2022/02/07 08:08:38;;;;;;;0.45;0.45;;;21.30;99.90;;;;;;5064301;28;20037;-59
2022/02/07 08:11:10;;;;;;;1.48;0.95;;;21.30;99.90;;;;;;5050130;28;20046;-58
2022/02/07 08:13:45;;;;;;;0.40;0.40;;;21.40;99.90;;;;;;5051174;28;20056;-58
2022/02/07 08:16:17;;;;;;;0.40;0.40;;;21.40;99.90;;;;;;5036889;28;20053;-62
2022/02/07 08:18:45;;;;;;;0.85;0.38;;;21.30;99.90;;;;;;5053555;28;20053;-61
2022/02/07 08:21:12;;;;;;;0.45;0.45;;;21.20;99.90;;;;;;5048899;28;20056;-63
2022/02/07 08:23:40;;;;;;;0.50;0.50;;;21.10;99.90;;;;;;5050853;28;20424;-59
2022/02/07 08:26:08;;;;;;;0.30;0.30;;;21.10;99.90;;;;;;5048348;28;20049;-61
2022/02/07 08:28:46;;;;;;;0.68;0.68;;;21.10;99.90;;;;;;5049738;28;20045;-61
2022/02/07 08:31:14;;;;;;;2.25;1.42;;;21.10;99.90;;;;;;5050054;28;20053;-59
2022/02/07 08:33:41;;;;;;;3.63;1.20;;;21.10;99.90;;;;;;5045053;28;20044;-63
2022/02/07 08:36:09;;;;;;;0.85;0.85;;;21.10;99.90;;;;;;5051728;28;20048;-59
2022/02/07 08:38:36;;;;;;;1.65;0.85;;;21.10;99.90;;;;;;5049080;28;20052;-60
2022/02/07 08:41:04;;;;;;;0.40;0.40;;;21.10;99.90;;;;;;5045784;28;20044;-63
2022/02/07 08:43:31;;;;;;;0.40;0.40;;;21.10;99.90;;;;;;5051912;28;20049;-60
2022/02/07 08:45:59;;;;;;;2.03;1.33;;;21.10;99.90;;;;;;5052770;28;20048;-62
2022/02/07 08:48:26;;;;;;;1.30;0.95;;;21.00;99.90;;;;;;5047464;28;20051;-62
2022/02/07 08:50:57;;;;;;;1.90;1.05;;;21.00;99.90;;;;;;5047212;28;20049;-62
2022/02/07 08:53:27;;;;;;;0.30;0.30;;;21.00;99.90;;;;;;5049468;28;20048;-62
2022/02/07 08:55:56;;;;;;;0.30;0.30;;;21.00;99.90;;;;;;5079602;28;20056;-63
2022/02/07 08:58:31;;;;;;;0.75;0.73;;;21.00;99.90;;;;;;5090802;28;20055;-72
2022/02/07 09:11:07;;;;;;;0.73;0.73;;;21.00;99.90;;;;;;5063355;28;20045;-61
2022/02/07 09:13:37;;;;;;;0.43;0.43;;;20.90;99.90;;;;;;5066346;28;20049;-60
2022/02/07 09:18:49;;;;;;;4.07;2.95;;;20.90;99.90;;;;;;5074463;28;20063;-62
2022/02/07 09:21:16;;;;;;;;;;;20.90;99.90;;;;;;5071185;28;20048;-61
2022/02/07 09:23:45;;;;;;;2.33;1.35;;;20.90;99.90;;;;;;5068378;28;19932;-59
2022/02/07 09:26:14;;;;;;;0.35;0.35;;;20.80;99.90;;;;;;5073165;28;20044;-62
2022/02/07 09:28:42;;;;;;;0.40;0.40;;;20.80;99.90;;;;;;5071398;28;20047;-62
2022/02/07 09:31:10;;;;;;;;;;;20.80;99.90;;;;;;5070308;28;20049;-63
2022/02/07 09:33:38;;;;;;;;;;;20.80;99.90;;;;;;5068095;28;19924;-60
2022/02/07 09:36:05;;;;;;;0.35;0.35;;;20.80;99.90;;;;;;5062873;28;19924;-62
2022/02/07 09:38:33;;;;;;;0.30;0.30;;;20.80;99.90;;;;;;5069461;28;20056;-62
2022/02/07 09:41:06;;;;;;;0.45;0.45;;;20.90;99.90;;;;;;5063581;28;20048;-60
2022/02/07 09:43:42;;;;;;;0.40;0.40;;;21.00;99.90;;;;;;5061848;28;20385;-64
2022/02/07 09:46:17;;;;;;;0.30;0.30;;;21.20;99.90;;;;;;5068710;28;20045;-61
2022/02/07 09:48:45;;;;;;;1.63;0.60;;;21.30;99.90;;;;;;5049091;28;20048;-64
2022/02/07 09:51:13;;;;;;;0.40;0.40;;;21.40;99.90;;;;;;5069866;28;20044;-59
2022/02/07 09:53:41;;;;;;;0.60;0.60;;;21.50;99.90;;;;;;5066857;28;20047;-62
2022/02/07 09:56:11;;;;;;;1.17;0.73;;;21.50;99.90;;;;;;5067133;28;20040;-59
2022/02/07 09:58:39;;;;;;;1.65;1.13;;;21.50;99.90;;;;;;5063375;28;20052;-64
2022/02/07 10:01:13;;;;;;;0.70;0.70;;;21.30;99.90;;;;;;5048812;28;20040;-62
2022/02/07 10:03:50;;;;;;;3.33;1.25;;;21.30;99.90;;;;;;5067496;28;20148;-59
2022/02/07 10:06:34;;;;;;;0.60;0.60;;;21.30;99.90;;;;;;5062172;28;20051;-66
2022/02/07 10:12:08;;;;;;;0.30;0.30;;;21.20;99.90;;;;;;5066733;28;20484;-63
2022/02/07 10:14:44;;;;;;;0.60;0.60;;;21.20;99.90;;;;;;5043711;28;20596;-62
2022/02/07 10:20:27;;;;;;;0.40;0.40;;;21.10;99.90;;;;;;5054261;28;20040;-65
2022/02/07 10:39:49;;;;;;;0.38;0.38;;;20.90;99.90;;;;;;5048531;28;20056;-62
2022/02/07 10:44:49;;;;;;;0.30;0.30;;;20.80;99.90;;;;;;5050596;28;20091;-61
2022/02/07 10:50:13;;;;;;;1.15;0.77;;;20.80;99.90;;;;;;5050385;28;20045;-61
2022/02/07 10:52:56;;;;;;;0.65;0.65;;;20.70;99.90;;;;;;5063022;28;20049;-63
2022/02/07 10:55:28;;;;;;;0.45;0.45;;;20.70;99.90;;;;;;5062978;28;20075;-64
2022/02/07 10:57:59;;;;;;;0.40;0.40;;;20.70;99.90;;;;;;5051384;28;20060;-62
2022/02/07 11:00:35;;;;;;;0.90;0.70;;;20.70;99.90;;;;;;5062028;28;20055;-63
2022/02/07 11:03:10;;;;;;;0.43;0.43;;;20.70;99.90;;;;;;5049260;28;20049;-62
2022/02/07 11:05:48;;;;;;;0.30;0.30;;;20.70;99.90;;;;;;5068323;28;20056;-60
2022/02/07 11:08:25;;;;;;;0.40;0.40;;;20.70;99.90;;;;;;5063989;28;20065;-63
2022/02/07 11:24:47;;;;;;;0.50;0.50;;;21.00;99.90;;;;;;5048298;28;20071;-61
2022/02/07 11:27:42;;;;;;;1.25;0.82;;;21.10;99.90;;;;;;5059740;28;20051;-63
2022/02/07 11:30:15;;;;;;;0.55;0.55;;;21.10;99.90;;;;;;5051188;28;20043;-59
2022/02/07 11:32:43;;;;;;;0.40;0.40;;;21.20;99.90;;;;;;5063970;28;20043;-62
2022/02/07 11:35:11;;;;;;;0.65;0.60;;;21.10;99.90;;;;;;5071673;28;20047;-63
2022/02/07 11:37:39;;;;;;;0.68;0.68;;;20.20;99.90;;;;;;5051809;28;20086;-61
2022/02/07 11:40:29;;;;;;;4.20;3.10;;;19.30;98.70;;;;;;5059518;28;20052;-64
2022/02/07 11:43:06;;;;;;;3.90;2.63;;;18.80;99.20;;;;;;5054752;28;20472;-63
2022/02/07 11:45:57;;;;;;;4.13;2.53;;;19.00;99.80;;;;;;5065284;28;20052;-63
2022/02/07 11:48:51;;;;;;;6.72;4.00;;;19.50;99.70;;;;;;5064239;28;20041;-61
2022/02/07 11:51:22;;;;;;;6.18;2.47;;;19.80;99.00;;;;;;5070130;28;20059;-62
2022/02/07 11:54:10;;;;;;;4.93;3.28;;;20.10;99.00;;;;;;5068767;28;20049;-62
2022/02/07 11:56:49;;;;;;;2.90;2.17;;;20.30;99.00;;;;;;5060116;28;20055;-64
2022/02/07 12:02:07;;;;;;;7.10;2.67;;;20.60;98.90;;;;;;5067009;28;20059;-62
2022/02/07 12:04:40;;;;;;;2.53;1.75;;;20.80;99.20;;;;;;5050490;28;20053;-62
2022/02/07 12:07:14;;;;;;;9.18;2.50;;;21.00;99.50;;;;;;5060710;28;20044;-60
2022/02/07 12:12:41;;;;;;;4.45;2.92;;;21.20;99.90;;;;;;5064118;28;20048;-62
2022/02/07 12:15:13;;;;;;;3.42;2.17;;;21.30;99.90;;;;;;5043122;28;20508;-61
2022/02/07 12:17:41;;;;;;;9.50;3.15;;;21.40;99.90;;;;;;5052788;28;20059;-59
2022/02/07 12:20:15;;;;;;;1.85;1.58;;;21.40;99.90;;;;;;5049226;28;20057;-64
2022/02/07 12:22:57;;;;;;;5.85;1.90;;;21.50;99.90;;;;;;5063168;28;20048;-63
2022/02/07 12:25:38;;;;;;;3.33;2.60;;;21.50;99.90;;;;;;5052977;28;20044;-62
2022/02/07 12:28:08;;;;;;;1.83;1.50;;;21.50;99.90;;;;;;5052123;28;20433;-64
2022/02/07 12:31:00;;;;;;;4.32;2.83;;;21.50;99.90;;;;;;5070209;28;20047;-62
2022/02/07 12:33:29;;;;;;;5.95;3.40;;;21.50;99.90;;;;;;5048206;28;20049;-63
2022/02/07 12:36:01;;;;;;;4.22;2.58;;;21.40;99.90;;;;;;5070897;28;20044;-62
2022/02/07 12:38:30;;;;;;;0.98;0.95;;;21.40;99.90;;;;;;5050354;28;20060;-62
2022/02/07 12:40:58;;;;;;;5.15;2.15;;;21.40;99.90;;;;;;5050896;28;20049;-61
2022/02/07 12:43:25;;;;;;;9.57;1.52;;;21.30;99.90;;;;;;5063442;28;20451;-61
2022/02/07 12:45:53;;;;;;;1.98;1.33;;;21.30;99.90;;;;;;5058917;28;20059;-61
2022/02/07 12:48:26;;;;;;;8.68;2.47;;;21.30;99.90;;;;;;5068936;28;20060;-60
2022/02/07 12:50:55;;;;;;;0.63;0.63;;;21.20;99.90;;;;;;5054838;28;20045;-64
2022/02/07 12:53:28;;;;;;;1.55;1.45;;;21.20;99.90;;;;;;5062813;28;20436;-63
2022/02/07 12:55:59;;;;;;;0.60;0.60;;;21.20;99.90;;;;;;5069015;28;20048;-62
2022/02/07 12:58:32;;;;;;;3.58;2.38;;;21.10;99.90;;;;;;5057993;28;20072;-61
2022/02/07 13:01:42;;;;;;;1.10;1.10;;;21.10;99.90;;;;;;5053642;28;20041;-62
2022/02/07 13:04:19;;;;;;;8.10;4.60;;;21.10;99.90;;;;;;5049073;28;20071;-61
2022/02/07 13:06:52;;;;;;;4.00;2.00;;;21.10;99.90;;;;;;5070572;28;20056;-61
2022/02/07 13:09:33;;;;;;;0.77;0.70;;;21.10;99.90;;;;;;5063481;28;20040;-58
2022/02/07 13:14:41;;;;;;;2.35;1.67;;;21.00;99.90;;;;;;5059004;28;20053;-62
2022/02/07 13:17:10;;;;;;;5.60;1.33;;;21.00;99.90;;;;;;5048409;28;20048;-60
2022/02/07 13:19:47;;;;;;;0.45;0.45;;;21.00;99.90;;;;;;5033949;28;20063;-62
2022/02/07 13:22:17;;;;;;;2.47;2.00;;;20.90;99.90;;;;;;5052391;28;20052;-61
2022/02/07 13:24:45;;;;;;;2.75;1.25;;;20.90;99.90;;;;;;5049119;28;20496;-61
2022/02/07 13:27:15;;;;;;;0.60;0.60;;;20.90;99.90;;;;;;5040807;28;20049;-63
2022/02/07 13:29:45;;;;;;;2.22;1.20;;;20.90;99.90;;;;;;5049488;28;20060;-62
2022/02/07 13:32:18;;;;;;;0.50;0.50;;;20.90;99.90;;;;;;5047206;28;20052;-63
2022/02/07 13:34:50;;;;;;;2.45;1.38;;;20.90;99.90;;;;;;5054003;28;20049;-62
2022/02/07 13:37:24;;;;;;;1.55;0.77;;;20.90;99.90;;;;;;5059505;28;20092;-61
2022/02/07 13:40:05;;;;;;;3.55;1.75;;;20.80;99.90;;;;;;5034740;28;20422;-62
2022/02/07 13:42:37;;;;;;;9.90;1.20;;;20.90;99.90;;;;;;5051039;28;20067;-63
2022/02/07 13:45:12;;;;;;;0.82;0.82;;;20.90;99.90;;;;;;5044482;28;20075;-61
2022/02/07 13:47:44;;;;;;;0.68;0.68;;;20.90;99.90;;;;;;5049647;28;20037;-63
2022/02/07 13:50:18;;;;;;;1.55;1.23;;;20.90;99.90;;;;;;5058658;28;20048;-62
2022/02/07 13:52:49;;;;;;;2.08;1.25;;;21.00;99.90;;;;;;5049667;28;20049;-61
2022/02/07 13:55:31;;;;;;;0.88;0.88;;;21.10;99.90;;;;;;5062528;28;20699;-59
2022/02/07 13:58:14;;;;;;;1.38;1.27;;;21.20;99.90;;;;;;5065095;28;20055;-60
2022/02/07 14:00:47;;;;;;;0.93;0.88;;;21.30;99.90;;;;;;5038529;28;20056;-58
2022/02/07 14:03:22;;;;;;;0.40;0.40;;;21.50;99.90;;;;;;5061802;28;20440;-56
2022/02/07 14:05:56;;;;;;;0.52;0.52;;;21.50;99.90;;;;;;5060958;28;20059;-58
2022/02/07 14:08:39;;;;;;;0.85;0.65;;;21.50;99.90;;;;;;5065261;28;20053;-64
2022/02/07 14:11:09;;;;;;;1.67;1.27;;;21.50;99.90;;;;;;5059880;28;20037;-63
2022/02/07 14:13:38;;;;;;;0.40;0.40;;;21.40;99.90;;;;;;5060432;28;20044;-63
2022/02/07 14:16:08;;;;;;;0.52;0.52;;;21.40;99.90;;;;;;5051644;28;20049;-56
2022/02/07 14:18:45;;;;;;;2.50;1.00;;;21.50;99.90;;;;;;5054000;28;20056;-56
2022/02/07 14:21:15;;;;;;;3.72;1.85;;;21.50;99.90;;;;;;5055285;28;20260;-59
2022/02/07 14:23:51;;;;;;;2.55;1.73;;;21.50;99.90;;;;;;5060506;28;20423;-61
2022/02/07 14:26:40;;;;;;;4.50;1.75;;;21.40;99.90;;;;;;5045375;28;20170;-58
2022/02/07 14:29:08;;;;;;;3.95;2.55;;;21.40;99.90;;;;;;5060149;28;20041;-57
2022/02/07 14:31:37;;;;;;;0.55;0.55;;;21.50;99.90;;;;;;5062655;28;20048;-60
2022/02/07 14:34:04;;;;;;;1.20;1.02;;;21.50;99.90;;;;;;5067330;28;20045;-61
2022/02/07 14:36:33;;;;;;;1.75;0.93;;;21.50;99.90;;;;;;5069646;28;20060;-62
2022/02/07 14:39:00;;;;;;;1.45;1.08;;;21.50;99.90;;;;;;5050101;28;20045;-62
2022/02/07 14:41:30;;;;;;;0.63;0.63;;;21.50;99.90;;;;;;5067665;28;20059;-64
2022/02/07 14:44:02;;;;;;;2.28;1.60;;;21.40;99.90;;;;;;5066799;28;20058;-61
2022/02/07 14:46:36;;;;;;;2.00;0.82;;;21.40;99.90;;;;;;5051557;28;20052;-61
2022/02/07 14:49:07;;;;;;;0.60;0.60;;;21.40;99.90;;;;;;5067125;28;20043;-63
2022/02/07 14:51:35;;;;;;;1.00;1.00;;;21.40;99.90;;;;;;5071392;28;20522;-64
2022/02/07 14:54:03;;;;;;;0.82;0.82;;;21.40;99.90;;;;;;5048844;28;20059;-60
2022/02/07 14:56:31;;;;;;;;;;;21.30;99.90;;;;;;5085691;28;20044;-63
2022/02/07 14:58:58;;;;;;;;;;;21.30;99.90;;;;;;5087158;28;19924;-63
2022/02/07 15:01:25;;;;;;;1.55;1.35;;;21.30;99.90;;;;;;5081577;28;19930;-62
2022/02/07 15:03:54;;;;;;;1.77;1.35;;;21.30;99.90;;;;;;5083387;28;20049;-61
2022/02/07 15:06:22;;;;;;;0.45;0.45;;;21.30;99.90;;;;;;5083558;28;20043;-61
2022/02/07 15:08:51;;;;;;;1.85;0.73;;;21.30;99.90;;;;;;5060169;28;20047;-63
2022/02/07 15:11:18;;;;;;;1.08;0.80;;;21.20;99.90;;;;;;5074108;28;20071;-65
2022/02/07 15:13:45;;;;;;;3.60;0.95;;;21.20;99.90;;;;;;5070603;28;20036;-64
2022/02/07 15:16:13;;;;;;;2.88;1.23;;;21.20;99.90;;;;;;5069476;28;20044;-65
2022/02/07 15:18:44;;;;;;;2.72;1.27;;;21.10;99.90;;;;;;5064490;28;20052;-65
2022/02/07 15:21:12;;;;;;;1.85;1.15;;;21.10;99.90;;;;;;5064720;28;20435;-62
2022/02/07 15:23:41;;;;;;;1.00;0.77;;;21.10;99.90;;;;;;5062958;28;20044;-66
2022/02/07 15:26:09;;;;;;;0.85;0.50;;;21.10;99.90;;;;;;5068291;28;20079;-67
2022/02/07 15:28:37;;;;;;;3.15;2.10;;;21.10;99.90;;;;;;5069794;28;20059;-65
2022/02/07 15:31:05;;;;;;;0.47;0.47;;;21.10;99.90;;;;;;5069984;28;20052;-63
2022/02/07 15:33:42;;;;;;;0.75;0.68;;;21.10;99.90;;;;;;5054489;28;20049;-63
2022/02/07 15:36:10;;;;;;;;;;;21.20;99.90;;;;;;5067851;28;20036;-63
2022/02/07 15:38:39;;;;;;;0.73;0.73;;;21.20;99.90;;;;;;5069175;28;19928;-60
2022/02/07 15:41:07;;;;;;;0.60;0.60;;;21.30;99.90;;;;;;5044644;28;20575;-61
2022/02/07 15:43:34;;;;;;;0.50;0.50;;;21.40;99.90;;;;;;5070061;28;20053;-62
2022/02/07 15:46:03;;;;;;;0.40;0.40;;;21.50;99.90;;;;;;5054400;28;20059;-61
2022/02/07 15:48:36;;;;;;;0.30;0.30;;;21.50;99.90;;;;;;5066061;28;20044;-63
2022/02/07 15:51:09;;;;;;;0.50;0.50;;;21.60;99.90;;;;;;5073891;28;20626;-62
2022/02/07 15:53:37;;;;;;;6.53;1.90;;;21.60;99.90;;;;;;5075548;28;20040;-65
2022/02/07 15:56:05;;;;;;;;;;;21.60;99.90;;;;;;5066075;28;20052;-64
2022/02/07 15:58:34;;;;;;;0.63;0.63;;;21.60;99.90;;;;;;5066555;28;19931;-63
2022/02/07 16:01:03;;;;;;;8.48;2.15;;;21.70;99.90;;;;;;5070495;28;20047;-64